METAR Data
IDs: Format: Raw Decoded Include TAF

Data at: 2116 UTC 24 Mar 2019

KPPA 242055Z AUTO 10004KT 10SM CLR 18/02 A3007 RMK AO2 T01810023
KPPA 242035Z AUTO 09005KT 10SM CLR 18/03 A3008 RMK AO2 T01750027
KPPA 242015Z AUTO 00000KT 10SM CLR 17/02 A3008 RMK AO2 T01690024
KPPA 241955Z AUTO 04004KT 10SM CLR 17/03 A3008 RMK AO2 T01650027
KPPA 241935Z AUTO 05007KT 10SM CLR 17/03 A3009 RMK AO2 T01670028
KPPA 241915Z AUTO 02003KT 10SM CLR 16/03 A3010 RMK AO2 T01590033
KPPA 241855Z AUTO 02007KT 10SM CLR 16/03 A3010 RMK AO2 T01560031
KPPA 241835Z AUTO 01007KT 10SM CLR 16/03 A3010 RMK AO2 T01560030
KPPA 241815Z AUTO 35006KT 10SM CLR 15/03 A3011 RMK AO2 T01530033
KPPA 241755Z AUTO 03006KT 10SM CLR 15/03 A3011 RMK AO2 T01460031 10148 20030
KPPA 241735Z AUTO 02007KT 10SM CLR 14/04 A3011 RMK AO2 T01440036
KPPA 241715Z AUTO 01006KT 10SM CLR 14/04 A3011 RMK AO2 T01400039
KPPA 241655Z AUTO 35007KT 10SM CLR 13/04 A3012 RMK AO2 T01280044
KPPA 241635Z AUTO 36005KT 10SM CLR 12/04 A3011 RMK AO2 T01180041
KPPA 241615Z AUTO 36005KT 10SM CLR 12/04 A3012 RMK AO2 T01150040
KPPA 241555Z AUTO 34006KT 10SM CLR 11/04 A3011 RMK AO2 T01110043
KPPA 241535Z AUTO 34004KT 10SM CLR 10/04 A3011 RMK AO2 T01030044
KPPA 241515Z AUTO 32006KT 10SM CLR 10/05 A3011 RMK AO2 T00960047
KPPA 241455Z AUTO 32007KT 10SM CLR 09/04 A3010 RMK AO2 T00870044
KPPA 241435Z AUTO 31007KT 10SM CLR 08/05 A3009 RMK AO2 T00760047
KPPA 241415Z AUTO 32008KT 10SM CLR 07/05 A3008 RMK AO2 T00680045
KPPA 241355Z AUTO 29006KT 10SM CLR 06/04 A3008 RMK AO2 T00570040
KPPA 241335Z AUTO 29007KT 10SM CLR 05/04 A3008 RMK AO2 T00500035
KPPA 241315Z AUTO 32008KT 10SM CLR 04/03 A3007 RMK AO2 T00430032
KPPA 241255Z AUTO 30006KT 10SM CLR 03/02 A3006 RMK AO2 T00300020
KPPA 241235Z AUTO 32006KT 10SM CLR 04/03 A3006 RMK AO2 T00350025
KPPA 241215Z AUTO 32008KT 10SM CLR 03/02 A3005 RMK AO2 T00330022
KPPA 241155Z AUTO 31007KT 10SM CLR 04/02 A3005 RMK AO2 T00350024 10112 20035
KPPA 241135Z AUTO 32006KT 10SM CLR 04/03 A3005 RMK AO2 T00350025
KPPA 241115Z AUTO 32007KT 10SM CLR 04/03 A3005 RMK AO2 T00410031
KPPA 241055Z AUTO 32008KT 10SM CLR 04/03 A3005 RMK AO2 T00400028
KPPA 241035Z AUTO 31007KT 10SM CLR 04/03 A3004 RMK AO2 T00380025
KPPA 241015Z AUTO 33007KT 10SM CLR 05/03 A3003 RMK AO2 T00470034
KPPA 240955Z AUTO 33006KT 10SM CLR 06/04 A3003 RMK AO2 T00560035
KPPA 240935Z AUTO 30006KT 10SM CLR 06/04 A3003 RMK AO2 T00600036
KPPA 240910Z AUTO 02010KT 10SM CLR 06/04 A3001 RMK AO2 T00630038
KPPA 240855Z AUTO 02009KT 10SM CLR 07/04 A3001 RMK AO2 T00650040
KPPA 240835Z AUTO 01009KT 10SM CLR 06/04 A3001 RMK AO2 T00640040
KPPA 240815Z AUTO 02008KT 10SM CLR 06/04 A3000 RMK AO2 T00620037
KPPA 240755Z AUTO 02009KT 10SM CLR 07/04 A3000 RMK AO2 T00650036
KPPA 240735Z AUTO 02008KT 10SM CLR 07/03 A3000 RMK AO2 T00690032
KPPA 240715Z AUTO 02007KT 10SM CLR 07/03 A3001 RMK AO2 T00720030
KPPA 240655Z AUTO 01007KT 10SM CLR 09/03 A3000 RMK AO2 T00900026
KPPA 240635Z AUTO 35008G22KT 10SM CLR 11/02 A3000 RMK AO2 T01110022
KPPA 240615Z AUTO 14008KT 10SM CLR 11/02 A2996 RMK AO2 T01090018
KPPA 240555Z AUTO 14008KT 10SM CLR 10/02 A2997 RMK AO2 T01030021 10190 20085 401970068
KPPA 240535Z AUTO 14009KT 10SM CLR 09/02 A2997 RMK AO2 T00910023
KPPA 240515Z AUTO 14007KT 10SM CLR 10/02 A2997 RMK AO2 T00950024
KPPA 240455Z AUTO 14009KT 10SM CLR 11/02 A2997 RMK AO2 T01100020
KPPA 240435Z AUTO 14009KT 10SM CLR 10/02 A2997 RMK AO2 T01020022
KPPA 240415Z AUTO 11006KT 10SM CLR 11/02 A2997 RMK AO2 T01050022
KPPA 240355Z AUTO 11006KT 10SM CLR 11/02 A2997 RMK AO2 T01090022
KPPA 240335Z AUTO 12007KT 10SM CLR 11/02 A2997 RMK AO2 T01100021
KPPA 240315Z AUTO 11007KT 10SM CLR 11/03 A2997 RMK AO2 T01060026
KPPA 240255Z AUTO 10005KT 10SM CLR 11/03 A2996 RMK AO2 T01060032
KPPA 240235Z AUTO 13006KT 10SM CLR 12/02 A2996 RMK AO2 T01220018
KPPA 240215Z AUTO 13007KT 10SM CLR 12/02 A2995 RMK AO2 T01230019
KPPA 240155Z AUTO 13007KT 10SM CLR 13/02 A2995 RMK AO2 T01260017
KPPA 240135Z AUTO 13005KT 10SM CLR 14/01 A2994 RMK AO2 T01360009
KPPA 240115Z AUTO 15006KT 10SM CLR 14/03 A2993 RMK AO2 T01430026
KPPA 240055Z AUTO 16005KT 10SM CLR 15/04 A2993 RMK AO2 T01460036
KPPA 240035Z AUTO 15005KT 10SM CLR 17/02 A2993 RMK AO2 T01690018
KPPA 240015Z AUTO 18003KT 10SM CLR 18/M01 A2993 RMK AO2 T01831006
KPPA 232355Z AUTO 23003KT 10SM CLR 19/M03 A2993 RMK AO2 T01901032 10197 20139
KPPA 232335Z AUTO 27005KT 10SM CLR 19/M02 A2993 RMK AO2 T01931025
KPPA 232315Z AUTO 27008KT 10SM CLR 20/M02 A2993 RMK AO2 T01961024
KPPA 232255Z AUTO 27010G18KT 250V310 10SM CLR 19/M02 A2993 RMK AO2 T01931020
KPPA 232235Z AUTO 29008KT 10SM CLR 20/M02 A2994 RMK AO2 T01961017
KPPA 232215Z AUTO 29010KT 10SM CLR 20/M01 A2994 RMK AO2 T01971009
KPPA 232155Z AUTO 27010G23KT 10SM CLR 20/M01 A2994 RMK AO2 T01961011
KPPA 232135Z AUTO 28010G16KT 10SM SCT075 19/M01 A2994 RMK AO2 T01921010
KPPA 232115Z AUTO 26006KT 10SM SCT075 19/00 A2994 RMK AO2 T01881002
KPPA 232055Z AUTO 27010G14KT 220V280 10SM CLR 19/01 A2994 RMK AO2 T01890007
KPPA 232035Z AUTO 29005KT 10SM CLR 18/01 A2995 RMK AO2 T01810009
KPPA 232015Z AUTO 00000KT 10SM CLR 18/01 A2994 RMK AO2 T01750005
KPPA 231955Z AUTO 27005KT 10SM CLR 17/01 A2995 RMK AO2 T01740009
KPPA 231935Z AUTO 27005KT 10SM CLR 17/01 A2996 RMK AO2 T01700011
KPPA 231915Z AUTO 24005KT 10SM CLR 17/02 A2996 RMK AO2 T01660021
KPPA 231855Z AUTO 27005KT 10SM CLR 16/04 A2996 RMK AO2 T01610036
KPPA 231835Z AUTO 32003KT 10SM CLR 15/05 A2996 RMK AO2 T01520048
KPPA 231815Z AUTO 00000KT 10SM CLR 15/04 A2997 RMK AO2 T01470044
KPPA 231755Z AUTO 00000KT 10SM CLR 14/07 A2998 RMK AO2 T01380065 10138 20080
KPPA 231735Z AUTO 00000KT 10SM CLR 13/07 A2999 RMK AO2 T01340072
KPPA 231715Z AUTO 00000KT 10SM CLR 12/07 A3000 RMK AO2 T01230068
KPPA 231655Z AUTO 00000KT 10SM CLR 12/07 A3000 RMK AO2 T01180071
KPPA 231635Z AUTO 29005KT 10SM SCT008 11/08 A3000 RMK AO2 T01100077
KPPA 231615Z AUTO 00000KT 10SM BKN008 11/07 A3000 RMK AO2 LTG DSNT E AND SE T01060073
KPPA 231555Z AUTO 27006KT 10SM BKN008 11/08 A3000 RMK AO2 T01060083
KPPA 231535Z AUTO 29005KT 10SM OVC008 10/08 A3000 RMK AO2 T00980080
KPPA 231515Z AUTO 27007KT 10SM OVC008 09/09 A3001 RMK AO2 T00920087
KPPA 231455Z AUTO 24008KT 7SM OVC005 09/09 A3000 RMK AO2 T00920087
KPPA 231435Z AUTO 19009KT 3/4SM BR OVC002 09/09 A3000 RMK AO2 T00920087
KPPA 231415Z AUTO 18007KT M1/4SM FG OVC002 09/08 A2999 RMK AO2 LTG DSNT SE T00890084
KPPA 231355Z AUTO 00000KT M1/4SM FG OVC002 08/08 A2999 RMK AO2 T00820077
KPPA 231335Z AUTO 19008KT 1/4SM RA OVC002 08/08 A2999 RMK AO2 T00830078
KPPA 231315Z AUTO 17012KT 1/4SM FG OVC002 08/08 A2998 RMK AO2 T00840079
KPPA 231255Z AUTO 17012KT 1/4SM FG OVC002 08/08 A2997 RMK AO2 T00810076
KPPA 231235Z AUTO 17011KT 1/2SM FG OVC002 08/08 A2997 RMK AO2 T00800075
KPPA 231215Z AUTO 17011KT 1/2SM FG OVC002 08/08 A2996 RMK AO2 T00800075
KPPA 231155Z AUTO 16010KT 1/2SM FG OVC002 08/08 A2996 RMK AO2 LTG DSNT SE T00800075 10086 20068
KPPA 231135Z AUTO 16010KT 3/4SM BR OVC002 08/07 A2995 RMK AO2 T00780073
KPPA 231115Z AUTO 16013G16KT 2SM BR OVC002 08/07 A2995 RMK AO2 LTG DSNT SE T00780072
KPPA 231055Z AUTO 16013KT 7SM BKN004 08/07 A2994 RMK AO2 T00780072
KPPA 231035Z AUTO 16008KT 10SM CLR 08/07 A2993 RMK AO2 T00750070
KPPA 231015Z AUTO 17011KT 10SM CLR 08/07 A2992 RMK AO2 T00750070
KPPA 230955Z AUTO 16008KT 4SM BR SCT001 07/07 A2992 RMK AO2 T00700065
KPPA 230935Z AUTO 15009KT 1/2SM FG OVC001 08/07 A2991 RMK AO2 T00750070